Time;durP1;ratioP1;P1;durP2;ratioP2;P2;SDS_P1;SDS_P2;PMS_P1;PMS_P2;Temp;Humidity;BMP_temperature;BMP_pressure;BME280_temperature;BME280_humidity;BME280_pressure;Samples;Min_cycle;Max_cycle;Signal;HPM_P1;HPM_P2
2022/12/26 00:01:53;;;;;;;5.27;3.17;;;;;;;5.84;100.00;95405.94;5092141;28;20195;-56
2022/12/26 00:04:20;;;;;;;6.00;3.80;;;;;;;5.86;100.00;95411.72;5091888;28;20227;-55
2022/12/26 00:06:45;;;;;;;6.20;2.80;;;;;;;5.89;100.00;95429.25;5092000;28;20198;-55
2022/12/26 00:09:10;;;;;;;6.17;3.00;;;;;;;5.93;100.00;95418.09;5091756;28;20215;-56
2022/12/26 00:11:36;;;;;;;4.67;2.93;;;;;;;5.88;100.00;95427.59;5092223;28;20248;-53
2022/12/26 00:14:08;;;;;;;4.40;2.80;;;;;;;5.93;100.00;95435.75;5091814;28;20668;-55
2022/12/26 00:16:34;;;;;;;5.73;3.03;;;;;;;5.88;100.00;95433.47;5091911;28;20214;-55
2022/12/26 00:19:00;;;;;;;5.60;3.23;;;;;;;5.77;100.00;95420.59;5092164;28;20680;-56
2022/12/26 00:21:27;;;;;;;5.93;2.83;;;;;;;5.48;100.00;95391.06;5091730;28;20605;-55
2022/12/26 00:23:55;;;;;;;5.13;3.30;;;;;;;5.51;100.00;95402.69;5091743;28;20218;-54
2022/12/26 00:26:23;;;;;;;5.90;3.10;;;;;;;5.38;100.00;95394.97;5091845;28;20190;-55
2022/12/26 00:28:49;;;;;;;4.97;3.27;;;;;;;5.37;100.00;95390.84;5091577;28;20191;-56
2022/12/26 00:31:17;;;;;;;7.17;3.90;;;;;;;5.32;100.00;95389.41;5073385;28;20640;-55
2022/12/26 00:33:43;;;;;;;5.67;3.73;;;;;;;5.34;100.00;95380.06;5091478;28;20566;-57
2022/12/26 00:36:12;;;;;;;6.33;3.80;;;;;;;5.44;100.00;95388.78;5091250;28;20267;-53
2022/12/26 00:38:39;;;;;;;7.73;3.90;;;;;;;5.54;100.00;95397.47;5091327;28;20622;-59
2022/12/26 00:41:06;;;;;;;7.53;3.53;;;;;;;5.62;100.00;95400.41;5091565;28;20238;-53
2022/12/26 00:43:31;;;;;;;6.40;3.77;;;;;;;5.67;100.00;95411.06;5091311;28;20195;-53
2022/12/26 00:45:57;;;;;;;8.63;4.33;;;;;;;5.72;100.00;95409.09;5091373;28;20685;-56
2022/12/26 00:48:22;;;;;;;8.23;3.47;;;;;;;5.68;100.00;95400.91;5091460;28;20191;-53
2022/12/26 00:50:48;;;;;;;5.93;3.97;;;;;;;5.26;100.00;95372.94;5091372;28;20208;-52
2022/12/26 00:53:13;;;;;;;7.73;4.50;;;;;;;5.28;100.00;95357.72;5091108;28;20271;-54
2022/12/26 00:55:39;;;;;;;8.27;4.47;;;;;;;5.41;100.00;95351.13;5091572;28;20215;-53
2022/12/26 00:58:04;;;;;;;5.50;3.57;;;;;;;5.54;100.00;95384.88;5073164;28;20194;-53
2022/12/26 01:00:30;;;;;;;7.20;4.23;;;;;;;5.52;100.00;95386.66;5091880;28;20204;-53
2022/12/26 01:02:56;;;;;;;8.00;3.43;;;;;;;5.70;100.00;95406.66;5090878;28;20187;-53
2022/12/26 01:05:21;;;;;;;9.50;4.13;;;;;;;5.67;100.00;95421.97;5090826;28;20296;-52
2022/12/26 01:07:46;;;;;;;7.10;3.87;;;;;;;5.58;100.00;95414.06;5091232;28;20179;-56
2022/12/26 01:10:12;;;;;;;5.97;3.40;;;;;;;5.55;100.00;95401.63;5093223;28;20207;-55
2022/12/26 01:12:38;;;;;;;9.53;4.10;;;;;;;5.60;100.00;95409.75;5093953;28;20573;-54
2022/12/26 01:15:04;;;;;;;9.77;4.20;;;;;;;5.56;100.00;95398.22;5093896;28;20215;-53
2022/12/26 01:17:30;;;;;;;7.90;4.50;;;;;;;5.59;100.00;95398.06;5094728;28;20192;-56
2022/12/26 01:19:56;;;;;;;9.27;6.20;;;;;;;5.18;100.00;95380.06;5094434;28;20237;-52
2022/12/26 01:22:22;;;;;;;8.83;5.73;;;;;;;4.89;100.00;95346.31;5094921;28;20216;-56
2022/12/26 01:24:47;;;;;;;9.10;4.80;;;;;;;5.27;100.00;95396.44;5094336;28;20647;-53
2022/12/26 01:27:13;;;;;;;13.40;5.00;;;;;;;5.22;100.00;95431.13;5094353;28;20218;-53
2022/12/26 01:29:38;;;;;;;11.13;4.73;;;;;;;4.97;100.00;95376.94;5102502;22;20301;-53
2022/12/26 01:32:04;;;;;;;9.73;4.53;;;;;;;5.03;100.00;95391.75;5094427;28;20199;-52
2022/12/26 01:34:29;;;;;;;11.43;6.17;;;;;;;5.05;100.00;95376.53;5094324;28;20311;-52
2022/12/26 01:36:55;;;;;;;11.13;6.60;;;;;;;4.94;100.00;95346.88;5094308;28;20168;-53
2022/12/26 01:39:21;;;;;;;12.70;6.57;;;;;;;4.73;100.00;95342.13;5093973;28;20727;-52
2022/12/26 01:41:46;;;;;;;10.13;5.30;;;;;;;4.84;100.00;95365.88;5094105;28;20194;-53
2022/12/26 01:44:49;;;;;;;10.37;5.57;;;;;;;5.11;100.00;95412.31;5094222;28;20612;-53
2022/12/26 01:47:15;;;;;;;10.70;5.73;;;;;;;4.96;100.00;95387.94;5094345;28;20198;-54
2022/12/26 01:49:45;;;;;;;11.27;6.30;;;;;;;4.91;100.00;95362.16;5075890;28;20691;-53
2022/12/26 01:52:20;;;;;;;9.57;6.10;;;;;;;4.97;100.00;95358.50;5075761;28;20198;-54
2022/12/26 01:54:52;;;;;;;13.50;7.00;;;;;;;4.91;100.00;95359.63;5094189;28;20211;-53
2022/12/26 01:57:29;;;;;;;10.60;5.80;;;;;;;5.05;100.00;95369.81;5093926;28;20187;-53
2022/12/26 01:59:57;;;;;;;9.23;5.57;;;;;;;5.10;100.00;95367.88;5093869;28;20214;-54
2022/12/26 02:02:27;;;;;;;10.00;6.13;;;;;;;5.21;100.00;95376.59;5093757;28;20649;-52
2022/12/26 02:07:43;;;;;;;16.13;5.87;;;;;;;5.20;100.00;95423.66;5093913;28;20225;-56
2022/12/26 02:10:15;;;;;;;12.23;5.33;;;;;;;4.89;100.00;95386.59;5094159;28;20215;-52
2022/12/26 02:12:41;;;;;;;13.37;6.07;;;;;;;4.75;100.00;95361.31;5093652;28;20289;-56
2022/12/26 02:15:13;;;;;;;13.37;6.17;;;;;;;4.84;100.00;95360.03;5093770;28;20696;-55
2022/12/26 02:17:40;;;;;;;8.97;5.20;;;;;;;4.96;100.00;95382.91;5093784;28;20224;-55
2022/12/26 02:20:19;;;;;;;7.93;4.43;;;;;;;4.88;100.00;95385.00;5092947;28;20214;-55
2022/12/26 02:23:03;;;;;;;9.23;4.10;;;;;;;4.72;100.00;95375.75;5093612;28;20266;-56
2022/12/26 02:26:02;;;;;;;5.10;3.60;;;;;;;4.68;100.00;95360.00;5093431;28;20282;-52
2022/12/26 02:29:12;;;;;;;4.10;3.43;;;;;;;4.66;100.00;95349.19;5075228;28;20294;-56
2022/12/26 02:32:07;;;;;;;4.47;3.30;;;;;;;4.63;100.00;95369.47;4992083;28;20191;-53
2022/12/26 02:35:11;;;;;;;5.87;2.80;;;;;;;4.65;100.00;95362.66;4967465;28;20795;-54
2022/12/26 02:38:06;;;;;;;4.33;2.93;;;;;;;4.68;100.00;95357.50;5089914;28;20641;-56
2022/12/26 02:40:58;;;;;;;4.27;3.03;;;;;;;4.66;100.00;95344.16;5075162;28;20771;-53
2022/12/26 02:43:36;;;;;;;6.03;3.17;;;;;;;4.72;100.00;95356.44;5054887;28;20668;-52
2022/12/26 03:13:09;;;;;;;4.30;2.73;;;;;;;4.97;100.00;95408.88;5092871;28;20266;-55
2022/12/26 03:18:28;;;;;;;3.70;2.37;;;;;;;4.59;100.00;95380.59;5093428;28;20201;-56
2022/12/26 03:20:55;;;;;;;3.97;2.97;;;;;;;4.37;100.00;95354.03;5092452;28;20234;-56
2022/12/26 03:23:21;;;;;;;5.27;2.97;;;;;;;4.32;100.00;95344.22;5092656;28;20174;-52
2022/12/26 03:28:40;;;;;;;6.60;3.63;;;;;;;4.36;100.00;95330.59;5092817;28;20279;-53
2022/12/26 03:31:11;;;;;;;9.27;3.10;;;;;;;4.50;100.00;95376.03;5092223;28;20216;-53
2022/12/26 03:37:00;;;;;;;7.00;3.97;;;;;;;4.10;100.00;95339.41;5092823;28;20202;-53
2022/12/26 04:20:23;;;;;;;10.07;6.07;;;;;;;3.91;100.00;95383.13;5071412;28;20237;-55
2022/12/26 04:45:21;;;;;;;9.27;5.20;;;;;;;3.75;100.00;95392.28;5071173;28;20207;-53
2022/12/26 04:50:33;;;;;;;7.60;4.57;;;;;;;3.90;100.00;95411.69;5071615;28;20270;-55
2022/12/26 04:52:59;;;;;;;10.07;4.47;;;;;;;3.99;100.00;95421.31;5071220;28;20180;-53
2022/12/26 04:55:26;;;;;;;9.43;4.87;;;;;;;3.94;100.00;95411.44;5070847;28;20212;-52
2022/12/26 04:57:52;;;;;;;8.70;4.60;;;;;;;3.91;100.00;95413.31;5070879;28;20184;-52
2022/12/26 05:00:18;;;;;;;7.10;4.30;;;;;;;3.91;100.00;95416.63;5070720;28;20208;-53
2022/12/26 05:11:09;;;;;;;9.60;5.73;;;;;;;3.56;100.00;95406.56;5070911;28;20227;-51
2022/12/26 05:13:34;;;;;;;18.23;7.47;;;;;;;3.76;100.00;95421.53;5070911;28;20191;-53
2022/12/26 05:30:02;;;;;;;19.27;7.90;;;;;;;3.85;100.00;95448.78;5070938;28;20710;-56
2022/12/26 05:35:12;;;;;;;14.90;9.33;;;;;;;3.90;100.00;95440.16;5070498;28;20306;-55
2022/12/26 05:37:37;;;;;;;15.40;8.10;;;;;;;4.01;100.00;95460.59;5070400;28;20682;-56
2022/12/26 05:40:03;;;;;;;13.63;8.43;;;;;;;4.15;100.00;95463.28;5070554;28;20260;-55
2022/12/26 05:42:28;;;;;;;13.97;8.17;;;;;;;4.21;100.00;95488.16;5070665;28;21158;-55
2022/12/26 05:44:54;;;;;;;18.47;8.67;;;;;;;4.12;100.00;95447.53;5070136;28;20261;-57
2022/12/26 05:47:19;;;;;;;16.33;7.80;;;;;;;4.15;100.00;95462.47;5070674;28;20215;-52
2022/12/26 05:49:44;;;;;;;18.23;9.50;;;;;;;4.17;100.00;95451.44;5070558;28;20215;-56
2022/12/26 05:52:10;;;;;;;16.27;8.63;;;;;;;4.37;100.00;95489.94;5068972;28;20286;-55
2022/12/26 05:54:35;;;;;;;14.67;7.77;;;;;;;4.28;100.00;95473.59;5069546;28;20293;-55
2022/12/26 05:57:02;;;;;;;13.43;9.00;;;;;;;4.19;100.00;95474.00;5055010;28;20196;-54
2022/12/26 05:59:28;;;;;;;15.07;7.73;;;;;;;4.18;100.00;95462.34;5073592;28;20294;-56
2022/12/26 06:01:53;;;;;;;13.57;8.33;;;;;;;4.31;100.00;95486.03;5073968;28;20274;-56
2022/12/26 06:04:19;;;;;;;11.13;6.80;;;;;;;4.43;100.00;95514.81;5073268;28;20688;-56
2022/12/26 06:06:44;;;;;;;11.00;6.17;;;;;;;4.41;100.00;95526.66;5055523;28;20192;-57
2022/12/26 06:09:09;;;;;;;12.17;4.80;;;;;;;4.18;100.00;95518.47;5073793;28;20222;-55
2022/12/26 06:11:35;;;;;;;7.43;4.03;;;;;;;3.87;100.00;95488.06;5073843;28;20567;-55
2022/12/26 06:14:00;;;;;;;6.93;4.40;;;;;;;3.71;100.00;95466.19;5055379;28;20191;-56
2022/12/26 06:16:26;;;;;;;7.57;4.57;;;;;;;3.81;100.00;95480.00;5073634;28;20202;-55
2022/12/26 06:18:54;;;;;;;8.80;5.20;;;;;;;3.68;100.00;95443.69;5073473;28;20181;-53
2022/12/26 06:21:20;;;;;;;9.30;4.73;;;;;;;3.74;100.00;95456.00;5073560;28;20192;-54
2022/12/26 06:23:45;;;;;;;7.97;4.30;;;;;;;4.00;100.00;95483.31;5073348;28;20203;-54
2022/12/26 06:26:11;;;;;;;7.53;4.20;;;;;;;3.95;100.00;95483.50;5073073;28;20215;-54
2022/12/26 06:28:39;;;;;;;9.33;4.40;;;;;;;4.13;100.00;95494.44;5073134;28;20191;-53
2022/12/26 06:31:11;;;;;;;5.77;3.80;;;;;;;3.96;100.00;95489.38;5073337;28;20221;-53
2022/12/26 06:33:37;;;;;;;7.87;4.00;;;;;;;4.13;100.00;95517.06;5073411;28;20189;-53
2022/12/26 06:36:08;;;;;;;8.33;4.77;;;;;;;4.26;100.00;95543.31;5073199;28;20262;-56
2022/12/26 06:38:34;;;;;;;6.17;4.20;;;;;;;4.20;100.00;95519.22;5073238;28;20226;-56
2022/12/26 06:41:00;;;;;;;7.77;4.37;;;;;;;4.13;100.00;95494.44;5073264;28;20259;-52
2022/12/26 06:43:25;;;;;;;7.50;3.87;;;;;;;4.25;100.00;95511.47;5072914;28;20670;-54
2022/12/26 06:45:57;;;;;;;7.70;4.20;;;;;;;4.43;100.00;95515.66;5073060;28;20251;-54
2022/12/26 06:48:23;;;;;;;8.00;4.33;;;;;;;4.27;100.00;95494.59;5072940;28;20187;-53
2022/12/26 06:50:49;;;;;;;7.20;3.93;;;;;;;4.63;100.00;95529.78;5072757;28;20783;-53
2022/12/26 06:53:14;;;;;;;12.40;5.50;;;;;;;4.55;100.00;95527.66;5071673;28;20185;-54
2022/12/26 06:55:40;;;;;;;9.40;5.23;;;;;;;4.47;100.00;95538.97;5072813;28;20305;-54
2022/12/26 06:58:05;;;;;;;9.80;5.17;;;;;;;4.65;100.00;95523.81;5071622;28;20199;-54
2022/12/26 07:00:30;;;;;;;13.93;6.73;;;;;;;5.69;100.00;95474.84;5072597;28;20247;-56
2022/12/26 07:02:56;;;;;;;19.83;8.80;;;;;;;6.55;100.00;95463.38;5072759;28;20219;-55
2022/12/26 07:05:21;;;;;;;17.27;10.20;;;;;;;7.68;100.00;95468.53;5072760;28;20216;-56
2022/12/26 07:07:53;;;;;;;24.00;13.27;;;;;;;6.92;100.00;95590.19;5072606;28;20220;-58
2022/12/26 07:10:19;;;;;;;14.87;7.37;;;;;;;6.90;100.00;95678.75;5072467;28;20205;-58
2022/12/26 07:12:46;;;;;;;21.10;9.33;;;;;;;6.60;100.00;95655.94;5072556;28;20197;-58
2022/12/26 07:15:12;;;;;;;13.60;8.23;;;;;;;6.05;100.00;95642.03;5072330;28;20203;-55
2022/12/26 07:17:37;;;;;;;6.90;4.00;;;;;;;5.84;100.00;95648.97;5072410;28;20227;-57
2022/12/26 07:20:04;;;;;;;11.83;4.33;;;;;;;5.80;100.00;95599.53;5072310;28;20299;-59
2022/12/26 07:22:30;;;;;;;16.97;7.83;;;;;;;5.91;100.00;95591.44;5072390;28;20188;-54
2022/12/26 07:24:55;;;;;;;8.90;4.63;;;;;;;5.68;100.00;95619.50;5072153;28;20242;-55
2022/12/26 07:27:20;;;;;;;5.97;4.07;;;;;;;5.60;100.00;95584.59;5072503;28;20234;-61
2022/12/26 07:29:46;;;;;;;4.07;3.10;;;;;;;5.49;100.00;95628.91;5072217;28;20208;-58
2022/12/26 07:32:12;;;;;;;4.70;3.77;;;;;;;5.38;100.00;95621.03;5072616;28;20207;-57
2022/12/26 07:34:37;;;;;;;5.77;3.13;;;;;;;5.41;100.00;95565.44;5072301;28;20204;-60
2022/12/26 07:37:03;;;;;;;4.13;2.87;;;;;;;5.71;100.00;95505.88;5072414;28;20199;-59
2022/12/26 07:39:28;;;;;;;6.70;3.33;;;;;;;5.93;100.00;95600.56;5072575;28;20705;-55
2022/12/26 07:41:56;;;;;;;5.57;3.27;;;;;;;6.10;100.00;95635.00;5072271;28;20703;-54
2022/12/26 07:44:22;;;;;;;4.93;3.57;;;;;;;6.04;100.00;95674.91;5054396;28;20670;-55
2022/12/26 07:46:49;;;;;;;6.70;3.47;;;;;;;5.99;100.00;95607.00;5071869;28;20188;-54
2022/12/26 07:49:14;;;;;;;7.93;3.60;;;;;;;6.75;100.00;95614.69;5071728;28;20303;-55
2022/12/26 07:51:40;;;;;;;6.10;4.33;;;;;;;6.80;100.00;95710.47;5070983;28;20279;-55
2022/12/26 07:54:06;;;;;;;6.83;4.10;;;;;;;6.66;100.00;95672.47;5072046;28;20196;-56
2022/12/26 07:56:32;;;;;;;7.57;4.30;;;;;;;6.70;100.00;95656.25;5071997;28;20693;-55
2022/12/26 07:58:57;;;;;;;8.73;5.50;;;;;;;6.79;100.00;95608.56;5071697;28;20184;-55
2022/12/26 08:01:23;;;;;;;8.07;5.00;;;;;;;7.03;100.00;95613.97;5071655;28;20563;-57
2022/12/26 08:03:49;;;;;;;10.87;5.27;;;;;;;7.32;100.00;95602.22;5071619;28;20282;-57
2022/12/26 08:06:16;;;;;;;14.17;7.17;;;;;;;7.48;100.00;95613.09;5071542;28;20227;-58
2022/12/26 08:08:41;;;;;;;11.20;7.13;;;;;;;7.76;100.00;95562.50;5071639;28;20193;-58
2022/12/26 08:11:16;;;;;;;12.27;7.50;;;;;;;7.87;100.00;95615.03;5071613;28;20220;-57
2022/12/26 08:13:42;;;;;;;10.93;7.53;;;;;;;8.28;100.00;95677.56;5071359;28;20211;-57
2022/12/26 08:16:10;;;;;;;12.17;7.57;;;;;;;8.58;100.00;95657.19;5071658;28;20209;-58
2022/12/26 08:18:35;;;;;;;12.27;7.50;;;;;;;8.80;100.00;95675.25;5070685;28;20193;-57
2022/12/26 08:21:01;;;;;;;15.30;8.07;;;;;;;9.21;100.00;95692.97;5071320;28;20214;-58
2022/12/26 08:23:26;;;;;;;17.13;9.03;;;;;;;9.47;100.00;95709.91;5053588;28;20192;-57
2022/12/26 08:25:52;;;;;;;15.77;9.97;;;;;;;9.76;100.00;95736.78;5071404;28;20659;-60
2022/12/26 08:28:17;;;;;;;16.87;10.33;;;;;;;10.04;100.00;95762.03;5068738;28;20188;-58
2022/12/26 08:30:43;;;;;;;16.63;10.93;;;;;;;10.29;100.00;95783.31;5070839;28;20639;-57
2022/12/26 08:33:10;;;;;;;16.67;10.97;;;;;;;10.55;100.00;95815.47;5069962;28;20643;-57
2022/12/26 08:35:37;;;;;;;16.60;11.30;;;;;;;10.69;100.00;95830.63;5071015;28;20263;-57
2022/12/26 08:38:03;;;;;;;18.53;12.80;;;;;;;10.72;100.00;95838.06;5066517;28;20277;-57
2022/12/26 08:40:29;;;;;;;20.20;12.23;;;;;;;10.72;100.00;95855.88;5071044;28;20694;-58
2022/12/26 08:42:55;;;;;;;20.20;12.77;;;;;;;10.63;100.00;95815.78;5071011;28;20697;-58
2022/12/26 08:45:20;;;;;;;18.13;11.93;;;;;;;10.74;100.00;95787.91;5070829;28;20282;-57
2022/12/26 08:47:46;;;;;;;24.93;13.23;;;;;;;11.02;100.00;95718.16;5071029;28;20651;-58
2022/12/26 08:50:11;;;;;;;20.07;12.63;;;;;;;11.24;100.00;95809.91;5070743;28;20674;-58
2022/12/26 08:52:36;;;;;;;20.23;12.03;;;;;;;11.35;100.00;95828.63;5070902;28;20613;-58
2022/12/26 08:55:03;;;;;;;19.60;12.50;;;;;;;11.35;100.00;95792.19;5070825;28;20618;-60
2022/12/26 08:57:29;;;;;;;15.50;11.10;;;;;;;11.60;100.00;95808.19;5070824;28;20199;-57
2022/12/26 08:59:54;;;;;;;18.73;11.97;;;;;;;11.57;100.00;95777.03;5070683;28;20208;-57
2022/12/26 09:02:20;;;;;;;17.30;11.30;;;;;;;11.98;100.00;95807.25;5053314;28;20773;-55
2022/12/26 09:04:45;;;;;;;18.37;11.40;;;;;;;12.29;100.00;95827.03;5070453;28;20216;-55
2022/12/26 09:07:11;;;;;;;22.50;12.53;;;;;;;12.31;100.00;95797.13;5071091;28;20538;-57
2022/12/26 09:09:43;;;;;;;20.03;11.80;;;;;;;12.65;97.61;95877.91;5070423;28;20395;-56
2022/12/26 09:12:09;;;;;;;18.00;12.27;;;;;;;12.55;98.36;95854.00;5070713;28;20196;-55
2022/12/26 09:14:34;;;;;;;15.77;10.77;;;;;;;12.85;99.62;95821.09;5070623;28;20231;-57
2022/12/26 09:17:00;;;;;;;15.93;11.00;;;;;;;12.78;97.20;95875.28;5070686;28;20185;-55
2022/12/26 09:19:28;;;;;;;18.73;11.93;;;;;;;12.83;99.62;95807.66;5070496;28;20201;-54
2022/12/26 09:22:49;;;;;;;16.60;10.57;;;;;;;13.07;96.83;95874.75;5070746;28;20184;-55
2022/12/26 09:24:39;;;;;;;14.93;7.80;;;;;;;13.80;100.00;95417.56;5070125;28;20759;-56
2022/12/26 09:27:04;;;;;;;22.13;9.00;;;;;;;14.88;100.00;95504.47;5070232;28;20185;-56
2022/12/26 09:29:30;;;;;;;16.20;11.87;;;;;;;15.03;98.59;95848.84;5070774;28;20204;-60
2022/12/26 09:31:55;;;;;;;25.27;12.43;;;;;;;14.74;82.33;95934.91;5073133;28;20275;-58
2022/12/26 09:34:21;;;;;;;19.87;12.23;;;;;;;14.68;77.46;95919.25;5074165;28;20232;-57
2022/12/26 09:36:46;;;;;;;23.48;14.50;;;;;;;14.56;77.08;95897.19;5073961;28;20666;-59
2022/12/26 09:39:11;;;;;;;20.50;14.13;;;;;;;14.01;66.32;95962.09;5074032;28;20211;-57
2022/12/26 09:42:13;;;;;;;23.83;14.37;;;;;;;13.52;70.80;95832.16;5073909;28;20185;-56
2022/12/26 09:45:03;;;;;;;21.33;13.73;;;;;;;13.52;74.43;95754.69;5074190;28;20294;-56
2022/12/26 09:47:31;;;;;;;20.87;14.00;;;;;;;13.55;73.04;95785.13;5074335;28;20658;-55
2022/12/26 09:49:59;;;;;;;22.37;13.13;;;;;;;12.84;77.45;95668.94;5073602;28;20251;-54
2022/12/26 09:52:34;;;;;;;19.60;13.60;;;;;;;12.28;71.04;95810.13;5074070;28;20277;-55
2022/12/26 09:55:04;;;;;;;20.03;12.93;;;;;;;12.58;73.65;95733.91;5073666;28;20196;-57
2022/12/26 09:57:43;;;;;;;22.53;13.53;;;;;;;13.20;75.27;95714.63;5072422;28;20289;-57
2022/12/26 10:00:42;;;;;;;21.87;12.87;;;;;;;13.28;73.34;95755.69;5073657;28;20571;-58
2022/12/26 10:03:10;;;;;;;20.20;13.10;;;;;;;13.37;73.69;95744.75;5030125;28;20204;-58
2022/12/26 10:05:49;;;;;;;19.73;12.10;;;;;;;13.71;72.58;95755.69;5073416;28;20273;-57
2022/12/26 10:08:42;;;;;;;19.47;11.53;;;;;;;14.12;73.80;95729.31;5073553;28;20181;-58
2022/12/26 10:11:19;;;;;;;19.63;12.03;;;;;;;14.49;71.73;95771.47;5073761;28;20211;-57
2022/12/26 10:13:52;;;;;;;18.57;11.53;;;;;;;14.55;67.72;95865.66;5073426;28;20246;-57
2022/12/26 10:16:50;;;;;;;16.50;11.23;;;;;;;14.76;67.16;95875.91;5073615;28;20643;-58
2022/12/26 10:19:56;;;;;;;20.27;10.98;;;;;;;14.94;68.06;95841.13;5067524;28;20220;-58
2022/12/26 10:22:24;;;;;;;19.60;11.13;;;;;;;14.97;63.90;95907.44;5056722;28;20256;-57
2022/12/26 10:24:50;;;;;;;14.30;10.00;;;;;;;15.10;65.57;95878.13;5073317;28;20314;-57
2022/12/26 10:27:19;;;;;;;17.27;9.23;;;;;;;15.09;63.03;95930.28;5073124;28;20185;-58
2022/12/26 10:29:56;;;;;;;16.23;10.40;;;;;;;15.27;64.56;95889.53;5073033;28;20213;-57
2022/12/26 10:32:31;;;;;;;17.30;9.63;;;;;;;15.48;67.32;95812.63;5073760;28;20177;-57
2022/12/26 10:34:58;;;;;;;13.27;9.53;;;;;;;15.62;67.26;95799.44;5073122;28;20203;-57
2022/12/26 10:37:32;;;;;;;15.13;9.68;;;;;;;15.57;67.21;95809.28;5073007;28;20192;-58
2022/12/26 10:40:08;;;;;;;15.02;9.35;;;;;;;15.64;62.44;95926.56;5072851;28;20262;-58
2022/12/26 10:42:36;;;;;;;15.15;9.30;;;;;;;15.73;63.18;95900.16;5072313;28;20258;-57
2022/12/26 10:45:14;;;;;;;18.02;10.20;;;;;;;15.75;64.29;95864.94;5072571;28;20215;-57
2022/12/26 10:47:45;;;;;;;18.50;10.05;;;;;;;15.82;62.74;95895.97;5054801;28;20719;-57
2022/12/26 10:50:19;;;;;;;20.08;10.68;;;;;;;15.35;63.05;95884.56;5073508;28;20243;-59
2022/12/26 10:52:46;;;;;;;17.27;10.20;;;;;;;14.40;65.20;95809.81;5072933;28;20197;-58
2022/12/26 10:55:18;;;;;;;14.70;9.63;;;;;;;14.68;63.71;95858.63;5073143;28;20200;-56
2022/12/26 10:57:47;;;;;;;22.20;9.07;;;;;;;14.75;65.60;95800.03;5054850;28;20689;-55
2022/12/26 11:00:19;;;;;;;12.20;5.90;;;;;;;14.16;65.57;95803.13;5071833;28;20671;-54
2022/12/26 11:02:44;;;;;;;12.07;5.93;;;;;;;14.58;66.81;95763.06;5072714;28;20216;-55
2022/12/26 11:05:16;;;;;;;10.30;6.53;;;;;;;14.83;65.01;95797.66;5072479;28;20272;-55
2022/12/26 11:07:55;;;;;;;12.65;7.85;;;;;;;14.06;65.12;95788.63;5072624;28;20674;-55
2022/12/26 11:10:25;;;;;;;13.75;8.27;;;;;;;14.44;66.29;95760.81;5072589;28;20205;-55
2022/12/26 11:12:53;;;;;;;13.35;8.93;;;;;;;14.56;64.70;95799.94;5072500;28;20200;-55
2022/12/26 11:15:39;;;;;;;10.80;7.20;;;;;;;14.05;64.94;95797.25;5072226;28;20217;-56
2022/12/26 11:18:16;;;;;;;13.98;7.03;;;;;;;14.40;64.22;95810.63;5072525;28;20695;-54
2022/12/26 11:20:42;;;;;;;11.20;8.00;;;;;;;15.05;64.56;95782.94;5072673;28;20761;-55
2022/12/26 11:23:32;;;;;;;12.73;7.57;;;;;;;15.15;63.33;95816.25;5072352;28;20217;-56
2022/12/26 11:26:00;;;;;;;14.10;8.63;;;;;;;15.30;63.18;95816.72;5072278;28;20205;-57
2022/12/26 11:28:29;;;;;;;14.00;8.17;;;;;;;15.56;62.24;95843.53;5072260;28;20204;-56
2022/12/26 11:30:55;;;;;;;9.87;6.97;;;;;;;15.09;59.52;95893.63;5072253;28;20235;-54
2022/12/26 11:33:31;;;;;;;13.65;6.50;;;;;;;14.96;62.53;95809.31;5072208;28;20667;-54
2022/12/26 11:36:03;;;;;;;8.90;6.37;;;;;;;15.07;61.42;95836.56;5072244;28;20236;-56
2022/12/26 11:38:34;;;;;;;10.95;5.45;;;;;;;15.32;58.91;95905.34;5072396;28;20181;-54
2022/12/26 11:43:48;;;;;;;11.40;6.35;;;;;;;15.12;59.92;95860.88;5072218;28;20565;-58
2022/12/26 11:46:14;;;;;;;15.40;5.85;;;;;;;15.11;60.57;95838.75;5072192;28;20208;-58
2022/12/26 11:48:40;;;;;;;8.73;6.10;;;;;;;14.93;60.44;95836.91;5071919;28;20188;-57
2022/12/26 11:51:07;;;;;;;10.35;6.70;;;;;;;15.19;60.68;95834.75;5072249;28;20569;-58
2022/12/26 11:53:33;;;;;;;10.63;6.35;;;;;;;15.43;60.14;95837.84;5070695;28;20199;-56
2022/12/26 11:56:05;;;;;;;10.93;5.13;;;;;;;15.57;59.97;95845.19;5071976;28;20209;-57
2022/12/26 11:58:32;;;;;;;8.23;4.75;;;;;;;15.61;58.34;95893.50;5071876;28;20189;-58
2022/12/26 12:00:58;;;;;;;15.77;5.00;;;;;;;15.77;57.54;95905.81;5071876;28;20209;-56
2022/12/26 12:03:46;;;;;;;8.13;4.38;;;;;;;16.00;57.50;95894.38;5071854;28;20188;-57
2022/12/26 12:06:36;;;;;;;7.22;4.40;;;;;;;16.04;56.35;95918.03;5072050;28;20208;-58
2022/12/26 12:09:23;;;;;;;9.02;4.00;;;;;;;16.13;57.55;95843.66;5071674;28;20222;-59
2022/12/26 12:11:58;;;;;;;12.85;3.80;;;;;;;16.03;57.69;95821.50;5072008;28;20663;-58
2022/12/26 12:14:26;;;;;;;9.57;4.07;;;;;;;16.05;55.11;95886.31;5071613;28;20214;-58
2022/12/26 12:17:28;;;;;;;7.65;4.45;;;;;;;15.90;55.43;95850.78;5071611;28;20193;-58
2022/12/26 12:20:02;;;;;;;8.93;4.82;;;;;;;15.86;57.17;95805.81;5071609;28;20653;-54
2022/12/26 12:22:39;;;;;;;6.75;4.20;;;;;;;15.81;55.67;95849.03;5071358;28;20291;-54
2022/12/26 12:25:31;;;;;;;6.35;4.45;;;;;;;15.91;55.12;95849.03;5071326;28;20611;-55
2022/12/26 12:28:08;;;;;;;12.48;5.72;;;;;;;16.01;55.11;95849.03;5070690;28;20209;-55
2022/12/26 12:30:57;;;;;;;7.30;4.53;;;;;;;15.96;56.83;95803.25;5071643;28;20296;-57
2022/12/26 12:33:40;;;;;;;6.93;4.78;;;;;;;16.05;55.91;95819.59;5071133;28;20675;-58
2022/12/26 12:36:10;;;;;;;9.93;5.25;;;;;;;16.03;55.26;95837.69;5071440;28;20211;-58
2022/12/26 12:38:59;;;;;;;6.47;5.05;;;;;;;15.77;57.35;95786.13;5071417;28;20184;-59
2022/12/26 12:41:39;;;;;;;9.75;6.03;;;;;;;15.51;57.62;95764.50;5071420;28;20184;-54
2022/12/26 12:44:07;;;;;;;7.93;4.93;;;;;;;15.59;56.92;95787.72;5071311;28;20228;-55
2022/12/26 12:46:54;;;;;;;8.27;5.97;;;;;;;15.82;58.56;95748.03;5071489;28;20195;-57
2022/12/26 12:49:32;;;;;;;9.98;5.97;;;;;;;15.93;58.43;95752.25;5070951;28;20288;-57
2022/12/26 12:52:28;;;;;;;10.23;5.28;;;;;;;15.88;56.95;95782.59;5071058;28;20185;-57
2022/12/26 12:55:05;;;;;;;10.23;6.25;;;;;;;15.56;56.97;95775.16;5070999;28;20221;-57
2022/12/26 12:57:36;;;;;;;10.30;5.85;;;;;;;15.63;56.85;95786.50;5071223;28;20654;-57
2022/12/26 13:00:18;;;;;;;11.43;6.57;;;;;;;15.60;58.30;95743.19;5071229;28;20674;-58
2022/12/26 13:03:09;;;;;;;8.68;5.60;;;;;;;15.62;56.44;95794.31;5070947;28;20726;-56
2022/12/26 13:05:47;;;;;;;12.07;6.13;;;;;;;15.83;56.60;95795.84;5070377;28;20212;-57
2022/12/26 13:08:21;;;;;;;6.45;4.38;;;;;;;15.59;56.11;95808.22;5070361;28;20191;-55
2022/12/26 13:10:51;;;;;;;5.63;3.33;;;;;;;15.19;56.03;95783.53;5070672;28;20688;-54
2022/12/26 13:13:31;;;;;;;5.30;2.85;;;;;;;14.92;56.97;95756.75;5070790;28;20268;-57
2022/12/26 13:16:04;;;;;;;5.15;3.28;;;;;;;14.99;56.66;95773.19;5070596;28;20733;-55
2022/12/26 13:18:38;;;;;;;6.15;3.83;;;;;;;14.91;58.91;95706.47;5070660;28;20189;-55
2022/12/26 13:21:07;;;;;;;5.57;3.65;;;;;;;14.95;56.62;95758.22;5070930;28;20216;-55
2022/12/26 13:26:52;;;;;;;8.80;3.97;;;;;;;14.86;57.09;95767.50;5070641;28;20210;-54
2022/12/26 13:29:24;;;;;;;7.72;3.70;;;;;;;14.69;57.44;95754.47;5063363;28;20709;-57
2022/12/26 13:31:49;;;;;;;6.72;4.22;;;;;;;14.45;59.30;95701.03;5068960;28;20193;-57
2022/12/26 13:34:17;;;;;;;7.43;4.07;;;;;;;14.52;57.33;95748.22;5070611;28;20214;-56
2022/12/26 13:36:53;;;;;;;6.72;3.80;;;;;;;14.31;58.92;95693.69;5070101;28;20192;-58
2022/12/26 13:39:21;;;;;;;8.05;4.30;;;;;;;14.21;60.29;95667.22;5070022;28;20678;-57
2022/12/26 13:44:41;;;;;;;9.43;5.50;;;;;;;13.89;60.05;95669.84;5070089;28;20321;-56
2022/12/26 13:47:30;;;;;;;8.27;4.60;;;;;;;13.58;61.92;95623.91;5070460;28;20208;-57
2022/12/26 13:49:56;;;;;;;7.60;4.97;;;;;;;13.40;61.98;95616.78;5070040;28;20227;-57
2022/12/26 13:52:38;;;;;;;12.60;4.87;;;;;;;13.29;62.98;95610.94;5070181;28;20181;-56
2022/12/26 13:55:04;;;;;;;5.77;3.73;;;;;;;13.20;63.05;95609.09;5070483;28;20241;-55
2022/12/26 13:57:38;;;;;;;8.67;5.40;;;;;;;13.05;64.46;95565.16;5070630;28;20212;-54
2022/12/26 14:00:04;;;;;;;8.57;4.00;;;;;;;13.09;62.75;95609.16;5069908;28;20213;-54
2022/12/26 14:02:32;;;;;;;8.13;4.07;;;;;;;13.04;63.58;95603.59;5070325;28;20185;-54